sensor_id;sensor_type;location;lat;lon;timestamp;P1;durP1;ratioP1;P2;durP2;ratioP2
56043;SDS011;41912;51.022;3.664;2023-04-25T00:01:36;15.45;;;5.20;;
56043;SDS011;41912;51.022;3.664;2023-04-25T00:04:03;18.88;;;6.32;;
56043;SDS011;41912;51.022;3.664;2023-04-25T00:06:30;23.48;;;6.18;;
56043;SDS011;41912;51.022;3.664;2023-04-25T00:08:57;16.63;;;5.60;;
56043;SDS011;41912;51.022;3.664;2023-04-25T00:11:23;17.00;;;7.07;;
56043;SDS011;41912;51.022;3.664;2023-04-25T00:13:49;19.88;;;6.32;;
56043;SDS011;41912;51.022;3.664;2023-04-25T00:16:17;22.77;;;5.93;;
56043;SDS011;41912;51.022;3.664;2023-04-25T00:18:43;13.95;;;5.30;;
56043;SDS011;41912;51.022;3.664;2023-04-25T00:21:11;20.63;;;6.18;;
56043;SDS011;41912;51.022;3.664;2023-04-25T00:23:36;19.67;;;5.68;;
56043;SDS011;41912;51.022;3.664;2023-04-25T00:26:03;22.17;;;5.88;;
56043;SDS011;41912;51.022;3.664;2023-04-25T00:28:29;18.67;;;6.30;;
56043;SDS011;41912;51.022;3.664;2023-04-25T00:30:55;20.40;;;5.47;;
56043;SDS011;41912;51.022;3.664;2023-04-25T00:33:21;18.38;;;5.22;;
56043;SDS011;41912;51.022;3.664;2023-04-25T00:35:46;22.35;;;5.80;;
56043;SDS011;41912;51.022;3.664;2023-04-25T00:38:12;25.35;;;5.55;;
56043;SDS011;41912;51.022;3.664;2023-04-25T00:40:38;20.02;;;5.90;;
56043;SDS011;41912;51.022;3.664;2023-04-25T00:43:03;18.27;;;4.95;;
56043;SDS011;41912;51.022;3.664;2023-04-25T00:45:29;16.92;;;5.15;;
56043;SDS011;41912;51.022;3.664;2023-04-25T00:47:55;23.77;;;5.63;;
56043;SDS011;41912;51.022;3.664;2023-04-25T00:50:21;21.67;;;6.10;;
56043;SDS011;41912;51.022;3.664;2023-04-25T00:52:47;18.55;;;5.03;;
56043;SDS011;41912;51.022;3.664;2023-04-25T00:55:13;24.35;;;5.20;;
56043;SDS011;41912;51.022;3.664;2023-04-25T00:57:38;20.67;;;4.68;;
56043;SDS011;41912;51.022;3.664;2023-04-25T01:00:05;21.40;;;5.47;;
56043;SDS011;41912;51.022;3.664;2023-04-25T01:02:32;27.13;;;6.60;;
56043;SDS011;41912;51.022;3.664;2023-04-25T01:04:58;19.10;;;4.85;;
56043;SDS011;41912;51.022;3.664;2023-04-25T01:07:24;28.30;;;6.40;;
56043;SDS011;41912;51.022;3.664;2023-04-25T01:09:51;22.60;;;5.03;;
56043;SDS011;41912;51.022;3.664;2023-04-25T01:12:17;20.50;;;4.55;;
56043;SDS011;41912;51.022;3.664;2023-04-25T01:14:43;17.35;;;4.55;;
56043;SDS011;41912;51.022;3.664;2023-04-25T01:17:09;18.25;;;4.80;;
56043;SDS011;41912;51.022;3.664;2023-04-25T01:19:35;22.67;;;4.68;;
56043;SDS011;41912;51.022;3.664;2023-04-25T01:22:01;22.23;;;4.57;;
56043;SDS011;41912;51.022;3.664;2023-04-25T01:24:27;24.27;;;5.30;;
56043;SDS011;41912;51.022;3.664;2023-04-25T01:26:53;16.27;;;5.18;;
56043;SDS011;41912;51.022;3.664;2023-04-25T01:29:21;18.98;;;4.90;;
56043;SDS011;41912;51.022;3.664;2023-04-25T01:31:48;23.73;;;5.13;;
56043;SDS011;41912;51.022;3.664;2023-04-25T01:34:14;17.85;;;4.30;;
56043;SDS011;41912;51.022;3.664;2023-04-25T01:36:40;25.73;;;6.13;;
56043;SDS011;41912;51.022;3.664;2023-04-25T01:39:06;16.90;;;4.20;;
56043;SDS011;41912;51.022;3.664;2023-04-25T01:41:32;14.88;;;4.20;;
56043;SDS011;41912;51.022;3.664;2023-04-25T01:43:59;23.38;;;4.32;;
56043;SDS011;41912;51.022;3.664;2023-04-25T01:46:25;19.25;;;4.63;;
56043;SDS011;41912;51.022;3.664;2023-04-25T01:48:51;20.48;;;5.35;;
56043;SDS011;41912;51.022;3.664;2023-04-25T01:51:17;18.10;;;4.30;;
56043;SDS011;41912;51.022;3.664;2023-04-25T01:53:43;23.17;;;4.88;;
56043;SDS011;41912;51.022;3.664;2023-04-25T01:56:08;21.77;;;4.80;;
56043;SDS011;41912;51.022;3.664;2023-04-25T01:58:34;23.00;;;5.35;;
56043;SDS011;41912;51.022;3.664;2023-04-25T02:01:00;17.25;;;4.75;;
56043;SDS011;41912;51.022;3.664;2023-04-25T02:03:26;16.25;;;4.20;;
56043;SDS011;41912;51.022;3.664;2023-04-25T02:05:51;22.25;;;5.00;;
56043;SDS011;41912;51.022;3.664;2023-04-25T02:08:17;23.88;;;4.82;;
56043;SDS011;41912;51.022;3.664;2023-04-25T02:10:43;22.58;;;5.00;;
56043;SDS011;41912;51.022;3.664;2023-04-25T02:13:09;23.13;;;4.28;;
56043;SDS011;41912;51.022;3.664;2023-04-25T02:15:35;18.35;;;4.78;;
56043;SDS011;41912;51.022;3.664;2023-04-25T02:18:00;25.48;;;4.60;;
56043;SDS011;41912;51.022;3.664;2023-04-25T02:20:27;19.95;;;4.70;;
56043;SDS011;41912;51.022;3.664;2023-04-25T02:22:54;16.48;;;4.18;;
56043;SDS011;41912;51.022;3.664;2023-04-25T02:25:19;18.00;;;5.45;;
56043;SDS011;41912;51.022;3.664;2023-04-25T02:27:46;26.95;;;6.10;;
56043;SDS011;41912;51.022;3.664;2023-04-25T02:30:12;19.88;;;6.05;;
56043;SDS011;41912;51.022;3.664;2023-04-25T02:32:38;14.52;;;4.32;;
56043;SDS011;41912;51.022;3.664;2023-04-25T02:35:04;15.73;;;4.05;;
56043;SDS011;41912;51.022;3.664;2023-04-25T02:37:31;17.13;;;4.80;;
56043;SDS011;41912;51.022;3.664;2023-04-25T02:39:58;20.23;;;4.75;;
56043;SDS011;41912;51.022;3.664;2023-04-25T02:42:23;30.35;;;4.82;;
56043;SDS011;41912;51.022;3.664;2023-04-25T02:44:49;15.63;;;4.88;;
56043;SDS011;41912;51.022;3.664;2023-04-25T02:47:14;18.55;;;4.43;;
56043;SDS011;41912;51.022;3.664;2023-04-25T02:49:40;19.92;;;5.35;;
56043;SDS011;41912;51.022;3.664;2023-04-25T02:52:06;20.38;;;5.35;;
56043;SDS011;41912;51.022;3.664;2023-04-25T02:54:32;20.92;;;5.00;;
56043;SDS011;41912;51.022;3.664;2023-04-25T02:56:57;20.65;;;4.47;;
56043;SDS011;41912;51.022;3.664;2023-04-25T02:59:23;19.45;;;4.07;;
56043;SDS011;41912;51.022;3.664;2023-04-25T03:01:49;16.38;;;4.38;;
56043;SDS011;41912;51.022;3.664;2023-04-25T03:04:14;14.23;;;4.90;;
56043;SDS011;41912;51.022;3.664;2023-04-25T03:06:40;11.13;;;3.88;;
56043;SDS011;41912;51.022;3.664;2023-04-25T03:09:05;22.60;;;5.47;;
56043;SDS011;41912;51.022;3.664;2023-04-25T03:11:31;16.58;;;4.03;;
56043;SDS011;41912;51.022;3.664;2023-04-25T03:13:57;17.08;;;4.45;;
56043;SDS011;41912;51.022;3.664;2023-04-25T03:16:23;17.27;;;3.70;;
56043;SDS011;41912;51.022;3.664;2023-04-25T03:18:48;22.65;;;5.28;;
56043;SDS011;41912;51.022;3.664;2023-04-25T03:21:15;16.42;;;4.10;;
56043;SDS011;41912;51.022;3.664;2023-04-25T03:23:41;17.20;;;4.47;;
56043;SDS011;41912;51.022;3.664;2023-04-25T03:26:07;20.77;;;3.78;;
56043;SDS011;41912;51.022;3.664;2023-04-25T03:28:33;17.15;;;4.28;;
56043;SDS011;41912;51.022;3.664;2023-04-25T03:30:58;25.52;;;4.60;;
56043;SDS011;41912;51.022;3.664;2023-04-25T03:33:24;23.20;;;4.45;;
56043;SDS011;41912;51.022;3.664;2023-04-25T03:35:50;19.85;;;5.07;;
56043;SDS011;41912;51.022;3.664;2023-04-25T03:38:16;22.05;;;4.10;;
56043;SDS011;41912;51.022;3.664;2023-04-25T03:40:42;13.40;;;3.70;;
56043;SDS011;41912;51.022;3.664;2023-04-25T03:43:08;16.58;;;3.25;;
56043;SDS011;41912;51.022;3.664;2023-04-25T03:45:33;14.27;;;4.25;;
56043;SDS011;41912;51.022;3.664;2023-04-25T03:47:59;15.52;;;3.97;;
56043;SDS011;41912;51.022;3.664;2023-04-25T03:50:25;14.60;;;4.05;;
56043;SDS011;41912;51.022;3.664;2023-04-25T03:52:50;19.10;;;3.80;;
56043;SDS011;41912;51.022;3.664;2023-04-25T03:55:16;20.05;;;4.72;;
56043;SDS011;41912;51.022;3.664;2023-04-25T03:57:42;21.15;;;4.50;;
56043;SDS011;41912;51.022;3.664;2023-04-25T04:00:07;22.80;;;4.80;;
56043;SDS011;41912;51.022;3.664;2023-04-25T04:02:34;14.70;;;4.28;;
56043;SDS011;41912;51.022;3.664;2023-04-25T04:05:01;21.42;;;3.97;;
56043;SDS011;41912;51.022;3.664;2023-04-25T04:07:27;8.68;;;3.42;;
56043;SDS011;41912;51.022;3.664;2023-04-25T04:09:53;10.10;;;3.40;;
56043;SDS011;41912;51.022;3.664;2023-04-25T04:12:19;17.65;;;4.22;;
56043;SDS011;41912;51.022;3.664;2023-04-25T04:14:44;18.58;;;4.60;;
56043;SDS011;41912;51.022;3.664;2023-04-25T04:17:10;13.35;;;3.33;;
56043;SDS011;41912;51.022;3.664;2023-04-25T04:19:36;12.63;;;3.20;;
56043;SDS011;41912;51.022;3.664;2023-04-25T04:22:01;12.25;;;3.53;;
56043;SDS011;41912;51.022;3.664;2023-04-25T04:24:27;14.60;;;3.60;;
56043;SDS011;41912;51.022;3.664;2023-04-25T04:26:53;14.98;;;3.42;;
56043;SDS011;41912;51.022;3.664;2023-04-25T04:29:18;13.25;;;3.30;;
56043;SDS011;41912;51.022;3.664;2023-04-25T04:31:49;16.25;;;3.60;;
56043;SDS011;41912;51.022;3.664;2023-04-25T04:34:15;15.32;;;3.35;;
56043;SDS011;41912;51.022;3.664;2023-04-25T04:36:47;18.70;;;3.83;;
56043;SDS011;41912;51.022;3.664;2023-04-25T04:39:13;12.93;;;3.45;;
56043;SDS011;41912;51.022;3.664;2023-04-25T04:41:39;13.98;;;3.03;;
56043;SDS011;41912;51.022;3.664;2023-04-25T04:44:04;16.17;;;4.05;;
56043;SDS011;41912;51.022;3.664;2023-04-25T04:46:31;14.80;;;3.70;;
56043;SDS011;41912;51.022;3.664;2023-04-25T04:49:02;18.70;;;3.95;;
56043;SDS011;41912;51.022;3.664;2023-04-25T04:51:31;11.35;;;3.05;;
56043;SDS011;41912;51.022;3.664;2023-04-25T04:53:57;21.88;;;4.63;;
56043;SDS011;41912;51.022;3.664;2023-04-25T04:56:27;10.88;;;3.65;;
56043;SDS011;41912;51.022;3.664;2023-04-25T04:58:56;13.80;;;3.40;;
56043;SDS011;41912;51.022;3.664;2023-04-25T05:01:25;28.08;;;5.45;;
56043;SDS011;41912;51.022;3.664;2023-04-25T05:03:51;14.30;;;4.30;;
56043;SDS011;41912;51.022;3.664;2023-04-25T05:06:18;10.75;;;3.50;;
56043;SDS011;41912;51.022;3.664;2023-04-25T05:08:44;18.08;;;4.28;;
56043;SDS011;41912;51.022;3.664;2023-04-25T05:11:09;15.50;;;3.70;;
56043;SDS011;41912;51.022;3.664;2023-04-25T05:13:36;14.35;;;4.53;;
56043;SDS011;41912;51.022;3.664;2023-04-25T05:16:01;17.50;;;4.40;;
56043;SDS011;41912;51.022;3.664;2023-04-25T05:18:27;15.18;;;3.95;;
56043;SDS011;41912;51.022;3.664;2023-04-25T05:20:53;12.82;;;5.05;;
56043;SDS011;41912;51.022;3.664;2023-04-25T05:23:18;19.35;;;4.28;;
56043;SDS011;41912;51.022;3.664;2023-04-25T05:25:44;14.68;;;3.65;;
56043;SDS011;41912;51.022;3.664;2023-04-25T05:28:11;15.95;;;4.07;;
56043;SDS011;41912;51.022;3.664;2023-04-25T05:30:37;14.43;;;4.30;;
56043;SDS011;41912;51.022;3.664;2023-04-25T05:33:03;15.50;;;4.78;;
56043;SDS011;41912;51.022;3.664;2023-04-25T05:35:29;15.13;;;4.07;;
56043;SDS011;41912;51.022;3.664;2023-04-25T05:37:55;17.38;;;3.90;;
56043;SDS011;41912;51.022;3.664;2023-04-25T05:40:20;17.05;;;3.90;;
56043;SDS011;41912;51.022;3.664;2023-04-25T05:42:46;14.00;;;3.90;;
56043;SDS011;41912;51.022;3.664;2023-04-25T05:45:12;20.35;;;4.28;;
56043;SDS011;41912;51.022;3.664;2023-04-25T05:47:38;13.65;;;4.00;;
56043;SDS011;41912;51.022;3.664;2023-04-25T05:50:03;11.98;;;3.65;;
56043;SDS011;41912;51.022;3.664;2023-04-25T05:52:29;17.73;;;4.03;;
56043;SDS011;41912;51.022;3.664;2023-04-25T05:54:55;11.50;;;3.58;;
56043;SDS011;41912;51.022;3.664;2023-04-25T05:57:22;15.50;;;3.55;;
56043;SDS011;41912;51.022;3.664;2023-04-25T05:59:49;12.75;;;3.58;;
56043;SDS011;41912;51.022;3.664;2023-04-25T06:02:15;21.85;;;3.63;;
56043;SDS011;41912;51.022;3.664;2023-04-25T06:04:41;16.65;;;4.22;;
56043;SDS011;41912;51.022;3.664;2023-04-25T06:07:06;14.60;;;3.53;;
56043;SDS011;41912;51.022;3.664;2023-04-25T06:09:32;15.05;;;3.42;;
56043;SDS011;41912;51.022;3.664;2023-04-25T06:11:57;13.35;;;2.75;;
56043;SDS011;41912;51.022;3.664;2023-04-25T06:14:23;14.00;;;3.25;;
56043;SDS011;41912;51.022;3.664;2023-04-25T06:16:49;13.30;;;2.80;;
56043;SDS011;41912;51.022;3.664;2023-04-25T06:19:14;10.32;;;2.97;;
56043;SDS011;41912;51.022;3.664;2023-04-25T06:21:41;9.32;;;3.08;;
56043;SDS011;41912;51.022;3.664;2023-04-25T06:24:08;15.23;;;3.80;;
56043;SDS011;41912;51.022;3.664;2023-04-25T06:26:33;14.90;;;3.35;;
56043;SDS011;41912;51.022;3.664;2023-04-25T06:28:59;10.30;;;3.05;;
56043;SDS011;41912;51.022;3.664;2023-04-25T06:31:24;13.60;;;2.95;;
56043;SDS011;41912;51.022;3.664;2023-04-25T06:33:50;11.00;;;3.08;;
56043;SDS011;41912;51.022;3.664;2023-04-25T06:36:19;12.48;;;3.05;;
56043;SDS011;41912;51.022;3.664;2023-04-25T06:38:49;16.85;;;2.80;;
56043;SDS011;41912;51.022;3.664;2023-04-25T06:41:16;19.17;;;2.75;;
56043;SDS011;41912;51.022;3.664;2023-04-25T06:43:41;16.27;;;3.03;;
56043;SDS011;41912;51.022;3.664;2023-04-25T06:46:07;10.20;;;1.85;;
56043;SDS011;41912;51.022;3.664;2023-04-25T06:48:32;13.00;;;2.38;;
56043;SDS011;41912;51.022;3.664;2023-04-25T06:50:58;11.80;;;3.05;;
56043;SDS011;41912;51.022;3.664;2023-04-25T06:53:24;13.15;;;2.40;;
56043;SDS011;41912;51.022;3.664;2023-04-25T06:55:49;10.38;;;2.30;;
56043;SDS011;41912;51.022;3.664;2023-04-25T06:58:15;13.85;;;2.38;;
56043;SDS011;41912;51.022;3.664;2023-04-25T07:00:41;13.15;;;2.50;;
56043;SDS011;41912;51.022;3.664;2023-04-25T07:03:07;10.90;;;2.50;;
56043;SDS011;41912;51.022;3.664;2023-04-25T07:05:32;12.25;;;2.22;;
56043;SDS011;41912;51.022;3.664;2023-04-25T07:07:58;13.90;;;2.97;;
56043;SDS011;41912;51.022;3.664;2023-04-25T07:10:25;9.55;;;2.20;;
56043;SDS011;41912;51.022;3.664;2023-04-25T07:12:50;8.32;;;2.40;;
56043;SDS011;41912;51.022;3.664;2023-04-25T07:15:16;14.90;;;2.28;;
56043;SDS011;41912;51.022;3.664;2023-04-25T07:17:42;12.27;;;2.13;;
56043;SDS011;41912;51.022;3.664;2023-04-25T07:20:08;9.93;;;2.20;;
56043;SDS011;41912;51.022;3.664;2023-04-25T07:22:34;18.60;;;3.00;;
56043;SDS011;41912;51.022;3.664;2023-04-25T07:25:00;11.93;;;2.60;;
56043;SDS011;41912;51.022;3.664;2023-04-25T07:27:26;15.15;;;2.78;;
56043;SDS011;41912;51.022;3.664;2023-04-25T07:29:51;12.85;;;2.92;;
56043;SDS011;41912;51.022;3.664;2023-04-25T07:32:17;15.63;;;2.65;;
56043;SDS011;41912;51.022;3.664;2023-04-25T07:34:43;17.10;;;2.15;;
56043;SDS011;41912;51.022;3.664;2023-04-25T07:37:09;13.02;;;2.40;;
56043;SDS011;41912;51.022;3.664;2023-04-25T07:39:35;16.48;;;2.03;;
56043;SDS011;41912;51.022;3.664;2023-04-25T07:42:02;11.50;;;2.17;;
56043;SDS011;41912;51.022;3.664;2023-04-25T07:44:29;7.05;;;1.50;;
56043;SDS011;41912;51.022;3.664;2023-04-25T07:47:03;11.70;;;3.30;;
56043;SDS011;41912;51.022;3.664;2023-04-25T07:49:31;6.90;;;1.33;;
56043;SDS011;41912;51.022;3.664;2023-04-25T07:51:58;11.75;;;1.98;;
56043;SDS011;41912;51.022;3.664;2023-04-25T07:54:24;8.80;;;1.73;;
56043;SDS011;41912;51.022;3.664;2023-04-25T07:56:50;7.70;;;1.90;;
56043;SDS011;41912;51.022;3.664;2023-04-25T07:59:15;13.35;;;1.63;;
56043;SDS011;41912;51.022;3.664;2023-04-25T08:01:41;8.95;;;1.48;;
56043;SDS011;41912;51.022;3.664;2023-04-25T08:04:07;9.45;;;1.65;;
56043;SDS011;41912;51.022;3.664;2023-04-25T08:06:32;9.57;;;1.67;;
56043;SDS011;41912;51.022;3.664;2023-04-25T08:08:58;11.73;;;1.83;;
56043;SDS011;41912;51.022;3.664;2023-04-25T08:11:23;5.40;;;1.30;;
56043;SDS011;41912;51.022;3.664;2023-04-25T08:13:50;7.25;;;1.73;;
56043;SDS011;41912;51.022;3.664;2023-04-25T08:16:15;15.07;;;2.20;;
56043;SDS011;41912;51.022;3.664;2023-04-25T08:18:41;9.73;;;2.65;;
56043;SDS011;41912;51.022;3.664;2023-04-25T08:21:07;8.15;;;2.00;;
56043;SDS011;41912;51.022;3.664;2023-04-25T08:23:33;10.68;;;1.75;;
56043;SDS011;41912;51.022;3.664;2023-04-25T08:25:59;11.65;;;2.15;;
56043;SDS011;41912;51.022;3.664;2023-04-25T08:28:25;8.93;;;1.42;;
56043;SDS011;41912;51.022;3.664;2023-04-25T08:30:50;5.38;;;1.30;;
56043;SDS011;41912;51.022;3.664;2023-04-25T08:33:16;9.10;;;1.63;;
56043;SDS011;41912;51.022;3.664;2023-04-25T08:35:42;5.28;;;1.38;;
56043;SDS011;41912;51.022;3.664;2023-04-25T08:38:09;10.27;;;1.80;;
56043;SDS011;41912;51.022;3.664;2023-04-25T08:40:35;7.30;;;1.75;;
56043;SDS011;41912;51.022;3.664;2023-04-25T08:43:03;14.30;;;1.67;;
56043;SDS011;41912;51.022;3.664;2023-04-25T08:45:31;7.75;;;1.40;;
56043;SDS011;41912;51.022;3.664;2023-04-25T08:47:58;9.00;;;1.42;;
56043;SDS011;41912;51.022;3.664;2023-04-25T08:50:24;13.35;;;1.60;;
56043;SDS011;41912;51.022;3.664;2023-04-25T08:52:51;4.70;;;1.02;;
56043;SDS011;41912;51.022;3.664;2023-04-25T08:55:19;7.32;;;1.40;;
56043;SDS011;41912;51.022;3.664;2023-04-25T08:57:46;9.20;;;1.25;;
56043;SDS011;41912;51.022;3.664;2023-04-25T09:00:12;9.48;;;1.40;;
56043;SDS011;41912;51.022;3.664;2023-04-25T09:02:39;10.32;;;1.55;;
56043;SDS011;41912;51.022;3.664;2023-04-25T09:05:07;7.70;;;1.88;;
56043;SDS011;41912;51.022;3.664;2023-04-25T09:07:34;6.40;;;1.45;;
56043;SDS011;41912;51.022;3.664;2023-04-25T09:10:00;4.43;;;1.02;;
56043;SDS011;41912;51.022;3.664;2023-04-25T09:12:28;5.47;;;1.48;;
56043;SDS011;41912;51.022;3.664;2023-04-25T09:15:05;12.70;;;2.88;;
56043;SDS011;41912;51.022;3.664;2023-04-25T09:17:32;6.45;;;1.40;;
56043;SDS011;41912;51.022;3.664;2023-04-25T09:20:11;9.27;;;1.90;;
56043;SDS011;41912;51.022;3.664;2023-04-25T09:22:38;8.10;;;2.50;;
56043;SDS011;41912;51.022;3.664;2023-04-25T09:25:13;9.68;;;1.50;;
56043;SDS011;41912;51.022;3.664;2023-04-25T09:27:54;6.38;;;1.27;;
56043;SDS011;41912;51.022;3.664;2023-04-25T09:30:30;6.57;;;1.42;;
56043;SDS011;41912;51.022;3.664;2023-04-25T09:32:57;4.07;;;1.35;;
56043;SDS011;41912;51.022;3.664;2023-04-25T09:35:42;6.93;;;1.73;;
56043;SDS011;41912;51.022;3.664;2023-04-25T09:38:10;8.43;;;1.52;;
56043;SDS011;41912;51.022;3.664;2023-04-25T09:40:41;7.47;;;1.60;;
56043;SDS011;41912;51.022;3.664;2023-04-25T09:43:20;12.98;;;2.40;;
56043;SDS011;41912;51.022;3.664;2023-04-25T09:45:47;10.30;;;1.65;;
56043;SDS011;41912;51.022;3.664;2023-04-25T09:48:20;8.07;;;1.50;;
56043;SDS011;41912;51.022;3.664;2023-04-25T09:51:05;7.93;;;1.35;;
56043;SDS011;41912;51.022;3.664;2023-04-25T09:53:35;3.60;;;1.38;;
56043;SDS011;41912;51.022;3.664;2023-04-25T09:56:07;7.68;;;1.67;;
56043;SDS011;41912;51.022;3.664;2023-04-25T09:58:34;8.82;;;1.52;;
56043;SDS011;41912;51.022;3.664;2023-04-25T10:01:04;5.78;;;1.55;;
56043;SDS011;41912;51.022;3.664;2023-04-25T10:03:32;6.45;;;1.30;;
56043;SDS011;41912;51.022;3.664;2023-04-25T10:06:02;7.97;;;1.50;;
56043;SDS011;41912;51.022;3.664;2023-04-25T10:08:32;4.93;;;1.33;;
56043;SDS011;41912;51.022;3.664;2023-04-25T10:11:06;8.32;;;1.73;;
56043;SDS011;41912;51.022;3.664;2023-04-25T10:13:33;7.30;;;1.05;;
56043;SDS011;41912;51.022;3.664;2023-04-25T10:16:01;5.40;;;1.70;;
56043;SDS011;41912;51.022;3.664;2023-04-25T10:18:28;8.45;;;1.25;;
56043;SDS011;41912;51.022;3.664;2023-04-25T10:20:55;9.15;;;1.65;;
56043;SDS011;41912;51.022;3.664;2023-04-25T10:23:24;6.28;;;1.40;;
56043;SDS011;41912;51.022;3.664;2023-04-25T10:25:51;3.55;;;1.33;;
56043;SDS011;41912;51.022;3.664;2023-04-25T10:28:18;4.53;;;1.20;;
56043;SDS011;41912;51.022;3.664;2023-04-25T10:30:57;4.93;;;1.13;;
56043;SDS011;41912;51.022;3.664;2023-04-25T10:33:40;3.83;;;1.02;;
56043;SDS011;41912;51.022;3.664;2023-04-25T10:36:11;5.65;;;1.83;;
56043;SDS011;41912;51.022;3.664;2023-04-25T10:38:42;4.70;;;1.08;;
56043;SDS011;41912;51.022;3.664;2023-04-25T10:41:09;8.45;;;2.10;;
56043;SDS011;41912;51.022;3.664;2023-04-25T10:43:40;10.27;;;1.40;;
56043;SDS011;41912;51.022;3.664;2023-04-25T10:46:22;8.10;;;1.20;;
56043;SDS011;41912;51.022;3.664;2023-04-25T10:48:49;6.63;;;1.50;;
56043;SDS011;41912;51.022;3.664;2023-04-25T10:51:23;5.18;;;1.15;;
56043;SDS011;41912;51.022;3.664;2023-04-25T10:56:20;7.05;;;1.10;;
56043;SDS011;41912;51.022;3.664;2023-04-25T10:58:47;10.98;;;1.40;;
56043;SDS011;41912;51.022;3.664;2023-04-25T11:01:14;3.25;;;0.85;;
56043;SDS011;41912;51.022;3.664;2023-04-25T11:03:41;6.47;;;1.55;;
56043;SDS011;41912;51.022;3.664;2023-04-25T11:06:55;4.70;;;1.33;;
56043;SDS011;41912;51.022;3.664;2023-04-25T11:09:09;4.78;;;1.27;;
56043;SDS011;41912;51.022;3.664;2023-04-25T11:11:38;7.53;;;1.30;;
56043;SDS011;41912;51.022;3.664;2023-04-25T11:14:04;7.10;;;1.20;;
56043;SDS011;41912;51.022;3.664;2023-04-25T11:16:29;6.50;;;1.50;;
56043;SDS011;41912;51.022;3.664;2023-04-25T11:18:57;7.88;;;1.48;;
56043;SDS011;41912;51.022;3.664;2023-04-25T11:21:23;7.38;;;1.73;;
56043;SDS011;41912;51.022;3.664;2023-04-25T11:23:51;6.03;;;1.40;;
56043;SDS011;41912;51.022;3.664;2023-04-25T11:26:18;5.63;;;1.85;;
56043;SDS011;41912;51.022;3.664;2023-04-25T11:28:45;5.97;;;1.77;;
56043;SDS011;41912;51.022;3.664;2023-04-25T11:31:11;9.40;;;1.52;;
56043;SDS011;41912;51.022;3.664;2023-04-25T11:33:37;10.85;;;1.25;;
56043;SDS011;41912;51.022;3.664;2023-04-25T11:36:05;6.90;;;2.55;;
56043;SDS011;41912;51.022;3.664;2023-04-25T11:38:31;4.18;;;0.93;;
56043;SDS011;41912;51.022;3.664;2023-04-25T11:40:57;5.20;;;1.02;;
56043;SDS011;41912;51.022;3.664;2023-04-25T11:43:23;5.18;;;0.88;;
56043;SDS011;41912;51.022;3.664;2023-04-25T11:45:50;6.22;;;1.30;;
56043;SDS011;41912;51.022;3.664;2023-04-25T11:48:17;7.35;;;1.58;;
56043;SDS011;41912;51.022;3.664;2023-04-25T11:50:43;3.53;;;1.13;;
56043;SDS011;41912;51.022;3.664;2023-04-25T11:53:09;6.90;;;2.08;;
56043;SDS011;41912;51.022;3.664;2023-04-25T11:55:35;7.60;;;1.30;;
56043;SDS011;41912;51.022;3.664;2023-04-25T11:58:01;4.25;;;1.20;;
56043;SDS011;41912;51.022;3.664;2023-04-25T12:00:28;7.60;;;1.70;;
56043;SDS011;41912;51.022;3.664;2023-04-25T12:02:54;8.73;;;1.17;;
56043;SDS011;41912;51.022;3.664;2023-04-25T12:05:26;8.35;;;1.77;;
56043;SDS011;41912;51.022;3.664;2023-04-25T12:07:53;9.68;;;1.83;;
56043;SDS011;41912;51.022;3.664;2023-04-25T12:10:20;9.40;;;1.90;;
56043;SDS011;41912;51.022;3.664;2023-04-25T12:12:46;7.40;;;1.30;;
56043;SDS011;41912;51.022;3.664;2023-04-25T12:15:13;3.63;;;1.17;;
56043;SDS011;41912;51.022;3.664;2023-04-25T12:17:45;11.18;;;1.85;;
56043;SDS011;41912;51.022;3.664;2023-04-25T12:20:21;8.50;;;1.55;;
56043;SDS011;41912;51.022;3.664;2023-04-25T12:22:50;5.10;;;1.10;;
56043;SDS011;41912;51.022;3.664;2023-04-25T12:30:59;7.97;;;1.55;;
56043;SDS011;41912;51.022;3.664;2023-04-25T12:33:32;11.18;;;1.52;;
56043;SDS011;41912;51.022;3.664;2023-04-25T12:36:02;6.13;;;1.25;;
56043;SDS011;41912;51.022;3.664;2023-04-25T12:38:36;10.90;;;1.77;;
56043;SDS011;41912;51.022;3.664;2023-04-25T12:41:04;6.95;;;1.60;;
56043;SDS011;41912;51.022;3.664;2023-04-25T12:43:30;4.30;;;1.75;;
56043;SDS011;41912;51.022;3.664;2023-04-25T12:45:56;8.25;;;1.40;;
56043;SDS011;41912;51.022;3.664;2023-04-25T12:48:22;5.00;;;1.30;;
56043;SDS011;41912;51.022;3.664;2023-04-25T12:50:49;6.03;;;1.42;;
56043;SDS011;41912;51.022;3.664;2023-04-25T12:53:19;8.57;;;1.40;;
56043;SDS011;41912;51.022;3.664;2023-04-25T12:55:46;4.28;;;1.15;;
56043;SDS011;41912;51.022;3.664;2023-04-25T12:58:12;5.32;;;1.30;;
56043;SDS011;41912;51.022;3.664;2023-04-25T13:00:38;8.02;;;1.40;;
56043;SDS011;41912;51.022;3.664;2023-04-25T13:03:04;7.82;;;1.65;;
56043;SDS011;41912;51.022;3.664;2023-04-25T13:05:30;11.10;;;1.92;;
56043;SDS011;41912;51.022;3.664;2023-04-25T13:07:56;4.28;;;1.35;;
56043;SDS011;41912;51.022;3.664;2023-04-25T13:10:22;9.13;;;1.75;;
56043;SDS011;41912;51.022;3.664;2023-04-25T13:12:47;8.32;;;1.75;;
56043;SDS011;41912;51.022;3.664;2023-04-25T13:15:13;9.48;;;1.42;;
56043;SDS011;41912;51.022;3.664;2023-04-25T13:17:40;8.90;;;1.42;;
56043;SDS011;41912;51.022;3.664;2023-04-25T13:20:06;5.97;;;1.58;;
56043;SDS011;41912;51.022;3.664;2023-04-25T13:22:34;6.68;;;1.40;;
56043;SDS011;41912;51.022;3.664;2023-04-25T13:25:04;6.80;;;1.35;;
56043;SDS011;41912;51.022;3.664;2023-04-25T13:27:31;9.82;;;1.42;;
56043;SDS011;41912;51.022;3.664;2023-04-25T13:29:59;5.65;;;1.30;;
56043;SDS011;41912;51.022;3.664;2023-04-25T13:32:32;10.38;;;1.80;;
56043;SDS011;41912;51.022;3.664;2023-04-25T13:35:02;5.65;;;1.60;;
56043;SDS011;41912;51.022;3.664;2023-04-25T13:37:28;6.90;;;1.20;;
56043;SDS011;41912;51.022;3.664;2023-04-25T13:39:55;8.35;;;1.65;;
56043;SDS011;41912;51.022;3.664;2023-04-25T13:42:21;9.02;;;1.98;;
56043;SDS011;41912;51.022;3.664;2023-04-25T13:44:48;8.80;;;1.63;;
56043;SDS011;41912;51.022;3.664;2023-04-25T13:47:13;10.13;;;1.83;;
56043;SDS011;41912;51.022;3.664;2023-04-25T13:49:39;7.30;;;1.25;;
56043;SDS011;41912;51.022;3.664;2023-04-25T13:52:05;7.38;;;1.30;;
56043;SDS011;41912;51.022;3.664;2023-04-25T13:54:31;5.60;;;1.40;;
56043;SDS011;41912;51.022;3.664;2023-04-25T13:56:56;6.47;;;1.30;;
56043;SDS011;41912;51.022;3.664;2023-04-25T13:59:24;7.35;;;1.73;;
56043;SDS011;41912;51.022;3.664;2023-04-25T14:01:50;6.20;;;1.23;;
56043;SDS011;41912;51.022;3.664;2023-04-25T14:04:16;11.15;;;1.67;;
56043;SDS011;41912;51.022;3.664;2023-04-25T14:06:42;7.53;;;1.52;;
56043;SDS011;41912;51.022;3.664;2023-04-25T14:09:08;7.65;;;1.85;;
56043;SDS011;41912;51.022;3.664;2023-04-25T14:11:35;6.38;;;1.13;;
56043;SDS011;41912;51.022;3.664;2023-04-25T14:14:01;9.10;;;1.65;;
56043;SDS011;41912;51.022;3.664;2023-04-25T14:16:28;5.72;;;1.27;;
56043;SDS011;41912;51.022;3.664;2023-04-25T14:18:54;8.52;;;1.85;;
56043;SDS011;41912;51.022;3.664;2023-04-25T14:21:20;7.05;;;1.42;;
56043;SDS011;41912;51.022;3.664;2023-04-25T14:23:46;8.75;;;1.20;;
56043;SDS011;41912;51.022;3.664;2023-04-25T14:26:12;9.82;;;1.05;;
56043;SDS011;41912;51.022;3.664;2023-04-25T14:28:38;10.77;;;1.85;;
56043;SDS011;41912;51.022;3.664;2023-04-25T14:31:03;5.15;;;1.05;;
56043;SDS011;41912;51.022;3.664;2023-04-25T14:33:29;7.20;;;1.27;;
56043;SDS011;41912;51.022;3.664;2023-04-25T14:35:55;6.65;;;1.05;;
56043;SDS011;41912;51.022;3.664;2023-04-25T14:38:21;7.97;;;1.90;;
56043;SDS011;41912;51.022;3.664;2023-04-25T14:40:48;7.90;;;1.50;;
56043;SDS011;41912;51.022;3.664;2023-04-25T14:43:15;7.07;;;1.42;;
56043;SDS011;41912;51.022;3.664;2023-04-25T14:45:40;11.32;;;1.52;;
56043;SDS011;41912;51.022;3.664;2023-04-25T14:48:06;5.55;;;1.25;;